sensor_id;sensor_type;location;lat;lon;timestamp;temperature;humidity
66629;DHT22;53532;53.084;6.352;2022-09-09T06:20:53;15.30;99.90
66629;DHT22;53532;53.084;6.352;2022-09-09T06:23:19;15.20;99.90
66629;DHT22;53532;53.084;6.352;2022-09-09T06:25:45;15.30;99.90
66629;DHT22;53532;53.084;6.352;2022-09-09T06:28:11;15.30;99.90
66629;DHT22;53532;53.084;6.352;2022-09-09T06:30:37;15.30;99.90
66629;DHT22;53532;53.084;6.352;2022-09-09T06:33:04;15.40;99.90
66629;DHT22;53532;53.084;6.352;2022-09-09T06:35:31;15.50;99.90
66629;DHT22;53532;53.084;6.352;2022-09-09T06:37:56;15.50;99.90
66629;DHT22;53532;53.084;6.352;2022-09-09T06:40:24;15.50;99.90
66629;DHT22;53532;53.084;6.352;2022-09-09T06:42:50;15.50;99.90
66629;DHT22;53532;53.084;6.352;2022-09-09T06:45:16;15.50;99.90
66629;DHT22;53532;53.084;6.352;2022-09-09T06:47:42;15.50;99.90
66629;DHT22;53532;53.084;6.352;2022-09-09T06:50:08;15.60;99.90
66629;DHT22;53532;53.084;6.352;2022-09-09T06:52:37;15.60;99.90
66629;DHT22;53532;53.084;6.352;2022-09-09T06:55:04;15.60;99.90
66629;DHT22;53532;53.084;6.352;2022-09-09T06:57:30;15.60;99.90
66629;DHT22;53532;53.084;6.352;2022-09-09T06:59:56;15.70;99.90
66629;DHT22;53532;53.084;6.352;2022-09-09T07:02:21;15.70;99.90
66629;DHT22;53532;53.084;6.352;2022-09-09T07:04:47;15.80;99.90
66629;DHT22;53532;53.084;6.352;2022-09-09T07:07:15;15.80;99.90
66629;DHT22;53532;53.084;6.352;2022-09-09T07:09:42;15.90;99.90
66629;DHT22;53532;53.084;6.352;2022-09-09T07:12:08;16.00;99.90
66629;DHT22;53532;53.084;6.352;2022-09-09T07:14:34;16.00;99.90
66629;DHT22;53532;53.084;6.352;2022-09-09T07:17:02;16.10;99.90
66629;DHT22;53532;53.084;6.352;2022-09-09T07:19:28;16.10;99.90
66629;DHT22;53532;53.084;6.352;2022-09-09T07:21:54;16.20;99.90
66629;DHT22;53532;53.084;6.352;2022-09-09T07:24:20;16.20;99.90
66629;DHT22;53532;53.084;6.352;2022-09-09T07:26:47;16.20;99.90
66629;DHT22;53532;53.084;6.352;2022-09-09T07:29:13;16.30;99.90
66629;DHT22;53532;53.084;6.352;2022-09-09T07:31:39;16.40;99.90
66629;DHT22;53532;53.084;6.352;2022-09-09T07:34:06;16.40;99.90
66629;DHT22;53532;53.084;6.352;2022-09-09T07:36:33;16.50;99.90
66629;DHT22;53532;53.084;6.352;2022-09-09T07:39:01;16.50;99.90
66629;DHT22;53532;53.084;6.352;2022-09-09T07:41:29;16.60;99.90
66629;DHT22;53532;53.084;6.352;2022-09-09T07:43:57;16.80;99.90
66629;DHT22;53532;53.084;6.352;2022-09-09T07:46:25;16.80;99.90
66629;DHT22;53532;53.084;6.352;2022-09-09T07:48:52;16.90;99.90
66629;DHT22;53532;53.084;6.352;2022-09-09T07:51:21;17.00;99.90
66629;DHT22;53532;53.084;6.352;2022-09-09T07:53:51;17.10;99.90
66629;DHT22;53532;53.084;6.352;2022-09-09T07:56:18;17.20;99.90
66629;DHT22;53532;53.084;6.352;2022-09-09T07:58:45;17.30;99.90
66629;DHT22;53532;53.084;6.352;2022-09-09T08:01:15;17.50;99.90
66629;DHT22;53532;53.084;6.352;2022-09-09T08:03:42;17.70;99.90
66629;DHT22;53532;53.084;6.352;2022-09-09T08:06:09;17.80;99.90
66629;DHT22;53532;53.084;6.352;2022-09-09T08:08:36;18.00;99.90
66629;DHT22;53532;53.084;6.352;2022-09-09T08:11:05;18.10;99.90
66629;DHT22;53532;53.084;6.352;2022-09-09T08:13:32;18.20;99.90
66629;DHT22;53532;53.084;6.352;2022-09-09T08:16:05;18.20;99.90
66629;DHT22;53532;53.084;6.352;2022-09-09T08:18:32;18.20;99.90
66629;DHT22;53532;53.084;6.352;2022-09-09T08:21:04;18.40;99.90
66629;DHT22;53532;53.084;6.352;2022-09-09T08:23:30;18.70;99.90
66629;DHT22;53532;53.084;6.352;2022-09-09T08:26:03;19.00;99.90
66629;DHT22;53532;53.084;6.352;2022-09-09T08:28:29;19.20;99.90
66629;DHT22;53532;53.084;6.352;2022-09-09T08:31:04;19.40;99.90
66629;DHT22;53532;53.084;6.352;2022-09-09T08:33:29;19.60;99.90
66629;DHT22;53532;53.084;6.352;2022-09-09T08:35:56;19.70;99.90
66629;DHT22;53532;53.084;6.352;2022-09-09T08:38:22;19.60;99.90
66629;DHT22;53532;53.084;6.352;2022-09-09T08:40:49;19.60;99.90
66629;DHT22;53532;53.084;6.352;2022-09-09T08:43:18;19.50;99.90
